createdAt,value
2018-12-03T00:01:37.162Z,94739.00
2018-12-03T00:04:13.059Z,94741.00
2018-12-03T00:06:44.646Z,94743.00
2018-12-03T00:09:15.643Z,94748.00
2018-12-03T00:11:46.575Z,94747.00
2018-12-03T00:14:17.598Z,94744.00
2018-12-03T00:16:48.534Z,94753.00
2018-12-03T00:19:19.546Z,94749.00
2018-12-03T00:21:50.534Z,94748.00
2018-12-03T00:24:21.493Z,94747.00
2018-12-03T00:26:52.474Z,94746.00
2018-12-03T00:29:23.474Z,94738.00
2018-12-03T00:31:54.394Z,94738.00
2018-12-03T00:34:25.393Z,94736.00
2018-12-03T00:36:56.354Z,94741.00
2018-12-03T00:39:27.374Z,94751.00
2018-12-03T00:41:58.362Z,94738.00
2018-12-03T00:44:29.707Z,94743.00
2018-12-03T00:47:00.571Z,94756.00
2018-12-03T00:49:31.534Z,94746.00
2018-12-03T00:52:02.494Z,94758.00
2018-12-03T00:54:33.894Z,94752.00
2018-12-03T00:57:04.858Z,94758.00
2018-12-03T00:59:36.206Z,94765.00
2018-12-03T01:02:11.242Z,94765.00
2018-12-03T01:04:42.436Z,94765.00
2018-12-03T01:07:13.434Z,94766.00
2018-12-03T01:09:44.654Z,94768.00
2018-12-03T01:12:15.613Z,94766.00
2018-12-03T01:14:47.075Z,94762.00
2018-12-03T01:17:18.017Z,94759.00
2018-12-03T01:19:49.334Z,94762.00
2018-12-03T01:22:20.272Z,94751.00
2018-12-03T01:24:52.447Z,94749.00
2018-12-03T01:27:23.415Z,94744.00
2018-12-03T01:29:54.492Z,94740.00
2018-12-03T01:32:25.415Z,94733.00
2018-12-03T01:34:56.313Z,94728.00
2018-12-03T01:37:27.254Z,94731.00
2018-12-03T01:39:58.178Z,94730.00
2018-12-03T01:42:30.614Z,94721.00
2018-12-03T01:45:01.516Z,94725.00
2018-12-03T01:47:32.686Z,94725.00
2018-12-03T01:50:03.947Z,94728.00
2018-12-03T01:52:34.914Z,94729.00
2018-12-03T01:55:07.554Z,94726.00
2018-12-03T01:57:38.937Z,94731.00
2018-12-03T02:00:20.018Z,94723.00
2018-12-03T02:02:50.914Z,94725.00
2018-12-03T02:05:21.893Z,94714.00
2018-12-03T02:07:52.934Z,94719.00
2018-12-03T02:10:23.933Z,94721.00
2018-12-03T02:12:54.872Z,94713.00
2018-12-03T02:15:25.875Z,94720.00
2018-12-03T02:17:57.116Z,94722.00
2018-12-03T02:20:28.054Z,94717.00
2018-12-03T02:22:59.025Z,94717.00
2018-12-03T02:25:29.936Z,94715.00
2018-12-03T02:28:00.867Z,94714.00
2018-12-03T02:30:32.095Z,94718.00
2018-12-03T02:33:08.252Z,94726.00
2018-12-03T02:35:39.393Z,94722.00
2018-12-03T02:38:10.375Z,94711.00
2018-12-03T02:40:41.793Z,94711.00
2018-12-03T02:43:13.596Z,94713.00
2018-12-03T02:45:48.848Z,94714.00
2018-12-03T02:48:20.453Z,94710.00
2018-12-03T02:50:51.498Z,94721.00
2018-12-03T02:53:22.755Z,94715.00
2018-12-03T02:55:54.266Z,94718.00
2018-12-03T02:58:26.438Z,94717.00
2018-12-03T03:00:57.387Z,94713.00
2018-12-03T03:03:28.744Z,94724.00
2018-12-03T03:05:59.714Z,94734.00
2018-12-03T03:08:30.971Z,94739.00
2018-12-03T03:11:02.014Z,94744.00
2018-12-03T03:13:32.950Z,94743.00
2018-12-03T03:16:03.855Z,94746.00
2018-12-03T03:18:34.726Z,94748.00
2018-12-03T03:21:05.765Z,94745.00
2018-12-03T03:23:36.710Z,94749.00
2018-12-03T03:26:07.742Z,94762.00
2018-12-03T03:28:38.692Z,94765.00
2018-12-03T03:31:09.711Z,94780.00
2018-12-03T03:33:40.576Z,94775.00
2018-12-03T03:36:11.494Z,94781.00
2018-12-03T03:38:42.474Z,94782.00
2018-12-03T03:41:13.433Z,94775.00
2018-12-03T03:43:44.339Z,94773.00
2018-12-03T03:46:15.317Z,94773.00
2018-12-03T03:48:46.235Z,94749.00
2018-12-03T03:51:17.555Z,94750.00
2018-12-03T03:53:49.818Z,94761.00
2018-12-03T03:56:20.775Z,94763.00
2018-12-03T03:58:51.735Z,94764.00
2018-12-03T04:01:22.697Z,94761.00
2018-12-03T04:03:53.682Z,94749.00
2018-12-03T04:06:24.749Z,94736.00
2018-12-03T04:08:56.976Z,94724.00
2018-12-03T04:11:27.886Z,94732.00
2018-12-03T04:13:59.097Z,94743.00
2018-12-03T04:16:30.055Z,94740.00
2018-12-03T04:19:00.954Z,94739.00
2018-12-03T04:21:32.680Z,94733.00
2018-12-03T04:24:03.635Z,94737.00
2018-12-03T04:26:34.906Z,94725.00
2018-12-03T04:29:06.256Z,94728.00
2018-12-03T04:31:37.415Z,94710.00
2018-12-03T04:34:08.437Z,94716.00
2018-12-03T04:36:39.414Z,94710.00
2018-12-03T04:39:10.655Z,94704.00
2018-12-03T04:41:41.694Z,94718.00
2018-12-03T04:44:12.595Z,94717.00
2018-12-03T04:46:43.604Z,94711.00
2018-12-03T04:49:14.494Z,94707.00
2018-12-03T04:51:45.433Z,94723.00
2018-12-03T04:54:16.326Z,94725.00
2018-12-03T04:56:47.263Z,94723.00
2018-12-03T04:59:18.174Z,94729.00
2018-12-03T05:01:49.175Z,94726.00
2018-12-03T05:04:20.706Z,94729.00
2018-12-03T05:06:51.709Z,94733.00
2018-12-03T05:09:22.594Z,94725.00
2018-12-03T05:11:53.594Z,94736.00
2018-12-03T05:14:24.803Z,94729.00
2018-12-03T05:16:55.800Z,94724.00
2018-12-03T05:19:26.674Z,94728.00
2018-12-03T05:21:59.406Z,94730.00
2018-12-03T05:24:30.246Z,94738.00
2018-12-03T05:27:01.199Z,94734.00
2018-12-03T05:29:32.078Z,94733.00
2018-12-03T05:32:03.056Z,94736.00
2018-12-03T05:34:34.539Z,94738.00
2018-12-03T05:37:05.874Z,94742.00
2018-12-03T05:39:37.877Z,94748.00
2018-12-03T05:42:08.859Z,94756.00
2018-12-03T05:44:39.713Z,94754.00
2018-12-03T05:47:10.766Z,94762.00
2018-12-03T05:49:42.082Z,94760.00
2018-12-03T05:52:13.650Z,94769.00
2018-12-03T05:54:44.514Z,94767.00
2018-12-03T05:57:15.713Z,94773.00
2018-12-03T05:59:46.631Z,94773.00
2018-12-03T06:02:17.565Z,94764.00
2018-12-03T06:04:48.570Z,94765.00
2018-12-03T06:07:19.590Z,94769.00
2018-12-03T06:09:50.439Z,94769.00
2018-12-03T06:12:22.570Z,94769.00
2018-12-03T06:14:53.458Z,94771.00
2018-12-03T06:17:24.419Z,94774.00
2018-12-03T06:19:55.331Z,94775.00
2018-12-03T06:22:26.274Z,94772.00
2018-12-03T06:24:57.219Z,94773.00
2018-12-03T06:27:28.526Z,94769.00
2018-12-03T06:29:59.456Z,94767.00
2018-12-03T06:32:30.380Z,94775.00
2018-12-03T06:35:01.265Z,94779.00
2018-12-03T06:37:32.832Z,94780.00
2018-12-03T06:40:03.877Z,94778.00
2018-12-03T06:42:34.870Z,94784.00
2018-12-03T06:45:06.454Z,94787.00
2018-12-03T06:47:41.089Z,94787.00
2018-12-03T06:50:13.356Z,94785.00
2018-12-03T06:52:44.766Z,94789.00
2018-12-03T06:55:15.650Z,94784.00
2018-12-03T06:57:47.862Z,94784.00
2018-12-03T07:00:20.697Z,94777.00
2018-12-03T07:02:52.471Z,94789.00
2018-12-03T07:05:25.728Z,94786.00
2018-12-03T07:07:59.077Z,94792.00
2018-12-03T07:10:29.891Z,94798.00
2018-12-03T07:13:06.396Z,94790.00
2018-12-03T07:15:39.694Z,94786.00
2018-12-03T07:18:11.968Z,94793.00
2018-12-03T07:20:44.438Z,94796.00
2018-12-03T07:23:15.294Z,94810.00
2018-12-03T07:25:46.135Z,94814.00
2018-12-03T07:28:17.650Z,94811.00
2018-12-03T07:30:48.613Z,94802.00
2018-12-03T07:33:19.674Z,94806.00
2018-12-03T07:35:50.538Z,94804.00
2018-12-03T07:38:21.460Z,94802.00
2018-12-03T07:40:52.309Z,94806.00
2018-12-03T07:43:23.428Z,94802.00
2018-12-03T07:45:54.277Z,94797.00
2018-12-03T07:48:25.418Z,94798.00
2018-12-03T07:50:56.382Z,94806.00
2018-12-03T07:53:27.676Z,94804.00
2018-12-03T07:55:58.626Z,94810.00
2018-12-03T07:58:29.571Z,94811.00
2018-12-03T08:01:00.618Z,94813.00
2018-12-03T08:03:31.785Z,94811.00
2018-12-03T08:06:02.743Z,94807.00
2018-12-03T08:08:33.513Z,94798.00
2018-12-03T08:11:04.322Z,94806.00
2018-12-03T08:13:35.265Z,94808.00
2018-12-03T08:16:06.197Z,94810.00
2018-12-03T08:18:37.790Z,94816.00
2018-12-03T08:21:10.037Z,94805.00
2018-12-03T08:24:01.070Z,94797.00
2018-12-03T08:26:32.837Z,94797.00
2018-12-03T08:29:03.745Z,94804.00
2018-12-03T08:31:34.606Z,94801.00
2018-12-03T08:34:05.809Z,94798.00
2018-12-03T08:36:36.757Z,94800.00
2018-12-03T08:39:11.254Z,94805.00
2018-12-03T08:41:42.099Z,94814.00
2018-12-03T08:44:13.554Z,94807.00
2018-12-03T08:46:43.913Z,94806.00
2018-12-03T08:49:14.808Z,94809.00
2018-12-03T08:51:45.630Z,94797.00
2018-12-03T08:54:16.469Z,94800.00
2018-12-03T08:56:47.946Z,94804.00
2018-12-03T08:59:18.828Z,94803.00
2018-12-03T09:01:49.667Z,94806.00
2018-12-03T09:04:21.286Z,94788.00
2018-12-03T09:06:52.153Z,94790.00
2018-12-03T09:09:23.074Z,94791.00
2018-12-03T09:11:54.270Z,94794.00
2018-12-03T09:14:32.451Z,94797.00
2018-12-03T09:17:03.324Z,94786.00
2018-12-03T09:19:34.627Z,94783.00
2018-12-03T09:22:07.266Z,94781.00
2018-12-03T09:24:38.050Z,94783.00
2018-12-03T09:27:09.092Z,94789.00
2018-12-03T09:29:39.963Z,94787.00
2018-12-03T09:32:10.793Z,94793.00
2018-12-03T09:34:41.786Z,94789.00
2018-12-03T09:37:13.805Z,94778.00
2018-12-03T09:39:46.090Z,94777.00
2018-12-03T09:42:17.092Z,94769.00
2018-12-03T09:44:47.951Z,94770.00
2018-12-03T09:47:19.557Z,94772.00
2018-12-03T09:49:50.490Z,94780.00
2018-12-03T09:52:21.346Z,94789.00
2018-12-03T09:54:52.166Z,94788.00
2018-12-03T09:57:23.106Z,94786.00
2018-12-03T09:59:54.258Z,94781.00
2018-12-03T10:02:29.293Z,94768.00
2018-12-03T10:05:01.290Z,94761.00
2018-12-03T10:07:31.979Z,94759.00
2018-12-03T10:10:38.154Z,94753.48
2018-12-03T10:13:10.173Z,94758.23
2018-12-03T10:15:41.086Z,94750.66
2018-12-03T10:18:11.838Z,94754.95
2018-12-03T10:20:47.623Z,94752.93
2018-12-03T10:23:18.750Z,94743.88
2018-12-03T10:25:53.259Z,94741.84
2018-12-03T10:28:24.528Z,94732.02
2018-12-03T10:30:57.600Z,94732.80
2018-12-03T10:33:32.819Z,94729.11
2018-12-03T10:36:09.243Z,94720.63
2018-12-03T10:38:42.679Z,94726.39
2018-12-03T10:41:32.725Z,94724.09
2018-12-03T10:44:04.346Z,94723.38
2018-12-03T10:46:35.221Z,94720.63
2018-12-03T10:49:09.644Z,94722.09
2018-12-03T10:51:40.595Z,94716.62
2018-12-03T10:54:11.411Z,94710.02
2018-12-03T10:56:42.679Z,94706.64
2018-12-03T10:59:13.570Z,94706.52
2018-12-03T11:01:51.549Z,94707.78
2018-12-03T11:04:43.009Z,94705.61
2018-12-03T11:07:15.654Z,94693.66
2018-12-03T11:09:46.531Z,94684.05
2018-12-03T11:12:17.470Z,94682.57
2018-12-03T11:14:48.319Z,94675.25
2018-12-03T11:17:19.307Z,94666.99
2018-12-03T11:19:50.193Z,94653.73
2018-12-03T11:22:23.634Z,94655.11
2018-12-03T11:24:54.366Z,94650.02
2018-12-03T11:27:25.727Z,94643.91
2018-12-03T11:29:56.639Z,94637.63
2018-12-03T11:32:27.555Z,94634.16
2018-12-03T11:34:58.222Z,94632.33
2018-12-03T11:37:29.055Z,94624.96
2018-12-03T11:40:19.048Z,94623.56
2018-12-03T11:42:49.930Z,94623.56
2018-12-03T11:45:21.230Z,94612.80
2018-12-03T11:47:52.369Z,94608.86
2018-12-03T11:50:23.204Z,94600.62
2018-12-03T11:52:54.055Z,94597.56
2018-12-03T11:55:24.749Z,94594.58
2018-12-03T11:57:55.691Z,94595.42
2018-12-03T12:00:26.434Z,94598.63
2018-12-03T12:02:57.232Z,94585.61
2018-12-03T12:05:27.997Z,94585.36
2018-12-03T12:07:58.894Z,94584.18
2018-12-03T12:10:29.724Z,94582.31
2018-12-03T12:13:00.612Z,94574.33
2018-12-03T12:15:31.290Z,94570.81
2018-12-03T12:18:02.131Z,94567.48
2018-12-03T12:20:32.903Z,94563.89
2018-12-03T12:23:03.820Z,94553.86
2018-12-03T12:25:34.558Z,94560.55
2018-12-03T12:28:05.637Z,94565.56
2018-12-03T12:30:36.539Z,94551.75
2018-12-03T12:33:07.903Z,94546.77
2018-12-03T12:35:38.583Z,94546.33
2018-12-03T12:38:09.359Z,94548.58
2018-12-03T12:40:40.162Z,94543.27
2018-12-03T12:43:11.151Z,94537.22
2018-12-03T12:45:52.721Z,94529.22
2018-12-03T12:48:23.718Z,94536.72
2018-12-03T12:50:54.615Z,94528.94
2018-12-03T12:53:25.450Z,94524.47
2018-12-03T12:55:56.583Z,94523.05
2018-12-03T12:58:27.478Z,94524.46
2018-12-03T13:00:58.735Z,94518.82
2018-12-03T13:03:29.489Z,94515.59
2018-12-03T13:06:00.371Z,94501.91
2018-12-03T13:08:31.212Z,94499.36
2018-12-03T13:11:02.706Z,94497.09
2018-12-03T13:13:33.471Z,94486.36
2018-12-03T13:16:04.283Z,94484.88
2018-12-03T13:18:35.175Z,94475.42
2018-12-03T13:21:06.053Z,94471.94
2018-12-03T13:23:36.766Z,94474.52
2018-12-03T13:26:09.181Z,94470.23
2018-12-03T13:28:39.887Z,94464.62
2018-12-03T13:31:10.788Z,94466.28
2018-12-03T13:33:41.551Z,94462.45
2018-12-03T13:36:12.754Z,94455.76
2018-12-03T13:38:43.569Z,94451.14
2018-12-03T13:41:14.294Z,94454.84
2018-12-03T13:43:45.037Z,94452.45
2018-12-03T13:46:15.740Z,94460.52
2018-12-03T13:48:46.482Z,94462.76
2018-12-03T13:51:17.288Z,94461.68
2018-12-03T13:53:47.995Z,94470.58
2018-12-03T13:56:18.814Z,94463.25
2018-12-03T13:58:49.511Z,94469.30
2018-12-03T14:01:20.254Z,94476.69
2018-12-03T14:03:53.263Z,94481.95
2018-12-03T14:06:32.088Z,94481.13
2018-12-03T14:09:55.602Z,94485.36
2018-12-03T14:12:39.800Z,94490.23
2018-12-03T14:15:40.142Z,94480.94
2018-12-03T14:18:27.273Z,94470.14
2018-12-03T14:21:03.676Z,94469.01
2018-12-03T14:23:37.742Z,94467.05
2018-12-03T14:26:09.030Z,94461.89
2018-12-03T14:28:39.853Z,94473.20
2018-12-03T14:31:10.758Z,94467.42
2018-12-03T14:33:41.553Z,94471.84
2018-12-03T14:36:12.327Z,94474.55
2018-12-03T14:38:43.258Z,94474.59
2018-12-03T14:41:14.190Z,94471.98
2018-12-03T14:43:44.925Z,94467.53
2018-12-03T14:46:15.758Z,94467.86
2018-12-03T14:48:46.570Z,94471.95
2018-12-03T14:51:17.393Z,94471.66
2018-12-03T14:53:48.247Z,94475.50
2018-12-03T14:56:19.166Z,94477.56
2018-12-03T14:58:50.207Z,94471.45
2018-12-03T15:01:21.694Z,94472.64
2018-12-03T15:03:52.395Z,94475.00
2018-12-03T15:06:23.963Z,94481.25
2018-12-03T15:08:54.994Z,94468.92
2018-12-03T15:11:25.770Z,94478.75
2018-12-03T15:13:56.509Z,94477.40
2018-12-03T15:16:27.366Z,94478.94
2018-12-03T15:18:58.257Z,94483.04
2018-12-03T15:21:29.090Z,94472.30
2018-12-03T15:23:59.855Z,94476.58
2018-12-03T15:26:30.588Z,94480.55
2018-12-03T15:29:01.200Z,94476.80
2018-12-03T15:31:32.027Z,94472.27
2018-12-03T15:34:02.740Z,94472.55
2018-12-03T15:36:33.677Z,94471.69
2018-12-03T15:39:05.973Z,94481.70
2018-12-03T15:41:37.328Z,94495.05
2018-12-03T15:44:08.080Z,94494.20
2018-12-03T15:46:38.873Z,94494.11
2018-12-03T15:49:09.635Z,94488.53
2018-12-03T15:51:41.115Z,94497.34
2018-12-03T15:54:27.531Z,94497.47
2018-12-03T15:57:28.424Z,94492.61
2018-12-03T16:00:03.205Z,94499.67
2018-12-03T16:02:33.942Z,94500.56
2018-12-03T16:05:06.850Z,94502.62
2018-12-03T16:07:37.840Z,94501.83
2018-12-03T16:10:12.619Z,94496.77
2018-12-03T16:12:44.691Z,94500.21
2018-12-03T16:15:15.387Z,94490.83
2018-12-03T16:17:46.292Z,94487.92
2018-12-03T16:20:17.209Z,94492.76
2018-12-03T16:22:48.511Z,94499.90
2018-12-03T16:25:19.291Z,94499.31
2018-12-03T16:27:50.153Z,94496.33
2018-12-03T16:30:23.761Z,94495.34
2018-12-03T16:32:54.705Z,94498.36
2018-12-03T16:35:25.505Z,94509.98
2018-12-03T16:37:56.266Z,94507.95
2018-12-03T16:40:27.032Z,94512.71
2018-12-03T16:42:58.997Z,94498.27
2018-12-03T16:45:29.974Z,94479.60
2018-12-03T16:48:00.817Z,94480.83
2018-12-03T16:50:31.850Z,94483.13
2018-12-03T16:53:02.767Z,94488.64
2018-12-03T16:55:33.576Z,94487.58
2018-12-03T16:58:04.469Z,94481.31
2018-12-03T17:00:35.466Z,94496.81
2018-12-03T17:03:06.328Z,94491.43
2018-12-03T17:05:37.210Z,94486.98
2018-12-03T17:08:08.104Z,94489.00
2018-12-03T17:10:38.999Z,94486.95
2018-12-03T17:13:09.911Z,94482.76
2018-12-03T17:15:40.852Z,94483.58
2018-12-03T17:18:11.901Z,94485.69
2018-12-03T17:21:00.583Z,94490.95
2018-12-03T17:23:47.091Z,94492.48
2018-12-03T17:26:18.040Z,94501.78
2018-12-03T17:28:49.048Z,94504.16
2018-12-03T17:31:20.275Z,94506.08
2018-12-03T17:33:51.286Z,94499.16
2018-12-03T17:36:22.851Z,94496.14
2018-12-03T17:38:54.183Z,94503.70
2018-12-03T17:41:25.237Z,94513.23
2018-12-03T17:43:56.314Z,94514.93
2018-12-03T17:46:27.358Z,94514.21
2018-12-03T17:48:58.255Z,94511.83
2018-12-03T17:51:29.457Z,94515.79
2018-12-03T17:54:00.644Z,94515.95
2018-12-03T17:56:31.866Z,94516.91
2018-12-03T17:59:02.973Z,94516.75
2018-12-03T18:01:34.429Z,94519.07
2018-12-03T18:04:05.773Z,94512.91
2018-12-03T18:06:36.734Z,94520.23
2018-12-03T18:09:08.478Z,94516.47
2018-12-03T18:11:39.732Z,94518.16
2018-12-03T18:14:10.963Z,94516.70
2018-12-03T18:16:42.424Z,94514.62
2018-12-03T18:19:13.855Z,94510.79
2018-12-03T18:21:45.193Z,94515.94
2018-12-03T18:24:17.557Z,94517.27
2018-12-03T18:26:48.916Z,94512.55
2018-12-03T18:29:20.212Z,94507.59
2018-12-03T18:31:51.515Z,94500.62
2018-12-03T18:34:22.925Z,94501.02
2018-12-03T18:36:54.229Z,94494.16
2018-12-03T18:39:25.808Z,94483.31
2018-12-03T18:41:57.153Z,94484.78
2018-12-03T18:44:28.486Z,94479.33
2018-12-03T18:46:59.817Z,94473.69
2018-12-03T18:49:36.648Z,94471.02
2018-12-03T18:52:09.314Z,94468.98
2018-12-03T18:54:40.775Z,94470.55
2018-12-03T18:57:12.110Z,94476.82
2018-12-03T18:59:43.535Z,94473.27
2018-12-03T19:02:14.900Z,94472.91
2018-12-03T19:04:46.341Z,94461.23
2018-12-03T19:07:17.719Z,94461.20
2018-12-03T19:09:49.197Z,94457.34
2018-12-03T19:12:21.325Z,94448.80
2018-12-03T19:14:52.945Z,94441.67
2018-12-03T19:17:25.099Z,94440.72
2018-12-03T19:19:56.569Z,94442.34
2018-12-03T19:22:28.102Z,94442.72
2018-12-03T19:24:59.949Z,94440.98
2018-12-03T19:27:31.439Z,94435.44
2018-12-03T19:30:02.958Z,94429.50
2018-12-03T19:32:34.931Z,94424.78
2018-12-03T19:35:07.058Z,94416.46
2018-12-03T19:37:38.586Z,94408.17
2018-12-03T19:40:10.398Z,94402.36
2018-12-03T19:42:41.918Z,94418.87
2018-12-03T19:45:13.523Z,94408.34
2018-12-03T19:47:46.547Z,94385.56
2018-12-03T19:50:18.068Z,94369.09
2018-12-03T19:52:52.770Z,94360.39
2018-12-03T19:55:24.559Z,94355.53
2018-12-03T19:58:05.071Z,94357.03
2018-12-03T20:00:37.167Z,94350.52
2018-12-03T20:03:09.294Z,94358.00
2018-12-03T20:05:40.882Z,94356.80
2018-12-03T20:08:12.441Z,94352.91
2018-12-03T20:10:44.043Z,94359.75
2018-12-03T20:13:15.624Z,94349.45
2018-12-03T20:15:47.246Z,94341.58
2018-12-03T20:18:18.779Z,94343.53
2018-12-03T20:21:04.071Z,94355.05
2018-12-03T20:23:41.176Z,94368.48
2018-12-03T20:26:26.339Z,94374.89
2018-12-03T20:29:30.026Z,94384.66
2018-12-03T20:32:45.151Z,94383.26
2018-12-03T20:35:27.837Z,94376.12
2018-12-03T20:38:10.483Z,94375.46
2018-12-03T20:41:09.775Z,94364.47
2018-12-03T20:43:42.699Z,94374.97
2018-12-03T20:46:36.956Z,94384.22
2018-12-03T20:49:26.352Z,94392.80
2018-12-03T20:52:09.247Z,94398.49
2018-12-03T20:54:40.917Z,94400.47
2018-12-03T20:57:12.614Z,94410.62
2018-12-03T20:59:44.340Z,94425.98
2018-12-03T21:02:19.116Z,94431.55
2018-12-03T21:04:50.763Z,94448.95
2018-12-03T21:07:22.326Z,94468.22
2018-12-03T21:09:53.990Z,94480.64
2018-12-03T21:12:25.678Z,94483.55
2018-12-03T21:14:57.207Z,94471.56
2018-12-03T21:17:28.717Z,94484.17
2018-12-03T21:20:11.435Z,94518.19
2018-12-03T21:22:42.974Z,94558.28
2018-12-03T21:25:14.571Z,94594.63
2018-12-03T21:27:45.985Z,94613.66
2018-12-03T21:30:17.594Z,94635.14
2018-12-03T21:32:49.105Z,94634.16
2018-12-03T21:35:20.634Z,94620.75
2018-12-03T21:37:52.307Z,94639.68
2018-12-03T21:40:23.794Z,94656.67
2018-12-03T21:42:55.338Z,94643.77
2018-12-03T21:45:26.859Z,94648.56
2018-12-03T21:47:58.337Z,94644.54
2018-12-03T21:50:30.241Z,94658.61
2018-12-03T21:53:01.772Z,94656.63
2018-12-03T21:55:32.934Z,94639.83
2018-12-03T21:58:03.976Z,94639.39
2018-12-03T22:00:35.203Z,94639.70
2018-12-03T22:03:06.482Z,94625.44
2018-12-03T22:05:37.716Z,94623.59
2018-12-03T22:08:08.862Z,94618.55
2018-12-03T22:10:39.934Z,94630.50
2018-12-03T22:13:10.972Z,94629.69
2018-12-03T22:15:41.860Z,94627.35
2018-12-03T22:18:12.862Z,94625.68
2018-12-03T22:20:43.915Z,94623.75
2018-12-03T22:23:14.810Z,94620.50
2018-12-03T22:25:45.790Z,94623.59
2018-12-03T22:28:16.761Z,94630.33
2018-12-03T22:30:47.753Z,94627.87
2018-12-03T22:33:18.697Z,94635.67
2018-12-03T22:35:49.722Z,94638.55
2018-12-03T22:38:20.874Z,94643.77
2018-12-03T22:40:51.748Z,94650.12
2018-12-03T22:43:22.850Z,94653.25
2018-12-03T22:45:53.753Z,94661.84
2018-12-03T22:48:24.630Z,94662.44
2018-12-03T22:50:55.665Z,94662.88
2018-12-03T22:53:26.949Z,94664.19
2018-12-03T22:55:59.882Z,94675.80
2018-12-03T22:58:30.825Z,94678.60
2018-12-03T23:01:09.043Z,94673.87
2018-12-03T23:03:39.931Z,94673.39
2018-12-03T23:06:10.913Z,94678.81
2018-12-03T23:08:41.994Z,94683.45
2018-12-03T23:11:12.929Z,94676.69
2018-12-03T23:13:43.881Z,94678.25
2018-12-03T23:16:15.562Z,94678.71
2018-12-03T23:18:46.590Z,94680.91
2018-12-03T23:21:17.545Z,94681.38
2018-12-03T23:23:48.451Z,94680.73
2018-12-03T23:26:19.511Z,94681.94
2018-12-03T23:28:50.403Z,94683.17
2018-12-03T23:31:21.311Z,94681.70
2018-12-03T23:33:52.200Z,94687.78
2018-12-03T23:36:23.170Z,94695.16
2018-12-03T23:38:54.005Z,94693.36
2018-12-03T23:41:24.928Z,94706.37
2018-12-03T23:43:55.805Z,94707.38
2018-12-03T23:46:26.671Z,94715.95
2018-12-03T23:48:57.482Z,94718.75
2018-12-03T23:51:28.390Z,94728.69
2018-12-03T23:53:59.286Z,94727.58
2018-12-03T23:56:30.548Z,94731.09
2018-12-03T23:59:01.446Z,94738.21
